Time;durP1;ratioP1;P1;durP2;ratioP2;P2;SDS_P1;SDS_P2;PMS_P1;PMS_P2;Temp;Humidity;BMP_temperature;BMP_pressure;BME280_temperature;BME280_humidity;BME280_pressure;Samples;Min_cycle;Max_cycle;Signal;HPM_P1;HPM_P2
2023/05/12 00:00:58;;;;;;;56.42;27.73;;;11.30;99.90;;;;;;5101197;28;20046;-83
2023/05/12 00:03:24;;;;;;;64.45;29.17;;;11.30;99.90;;;;;;5090090;28;20445;-82
2023/05/12 00:05:50;;;;;;;63.13;27.42;;;11.30;99.90;;;;;;5094234;27;20057;-83
2023/05/12 00:08:15;;;;;;;49.05;24.58;;;11.30;99.90;;;;;;5125242;27;20046;-83
2023/05/12 00:10:41;;;;;;;49.00;23.02;;;11.30;99.90;;;;;;5103282;28;20427;-83
2023/05/12 00:13:08;;;;;;;46.13;21.70;;;11.30;99.90;;;;;;5108326;27;20040;-83
2023/05/12 00:15:35;;;;;;;38.30;21.20;;;11.30;99.90;;;;;;5110334;27;20054;-83
2023/05/12 00:18:01;;;;;;;45.05;21.63;;;11.30;99.90;;;;;;5115904;27;20417;-83
2023/05/12 00:20:27;;;;;;;39.45;20.25;;;11.30;99.90;;;;;;5125097;27;20519;-83
2023/05/12 00:22:52;;;;;;;42.55;20.42;;;11.30;99.90;;;;;;5098010;28;20050;-83
2023/05/12 00:25:18;;;;;;;47.92;20.33;;;11.30;99.90;;;;;;5109004;27;20151;-83
2023/05/12 00:27:44;;;;;;;44.00;19.33;;;11.40;99.90;;;;;;5126315;27;20035;-82
2023/05/12 00:30:10;;;;;;;44.58;22.02;;;11.40;99.90;;;;;;5111010;27;20493;-82
2023/05/12 00:32:36;;;;;;;51.45;22.92;;;11.40;99.90;;;;;;5097211;28;20042;-83
2023/05/12 00:35:02;;;;;;;50.03;23.50;;;11.40;99.90;;;;;;5125505;27;20043;-82
2023/05/12 00:37:27;;;;;;;49.08;22.77;;;11.40;99.90;;;;;;5109499;28;20505;-82
2023/05/12 00:39:53;;;;;;;44.67;22.58;;;11.50;99.90;;;;;;5129216;27;20542;-82
2023/05/12 00:42:19;;;;;;;46.33;22.45;;;11.40;99.90;;;;;;5112386;27;20046;-83
2023/05/12 00:44:46;;;;;;;51.08;23.40;;;11.50;99.90;;;;;;5127426;28;20074;-83
2023/05/12 00:47:11;;;;;;;50.83;22.42;;;11.50;99.90;;;;;;5136152;27;20517;-82
2023/05/12 00:49:41;;;;;;;49.33;23.48;;;11.40;99.90;;;;;;5092952;28;20039;-82
2023/05/12 00:52:07;;;;;;;44.17;23.27;;;11.40;99.90;;;;;;5093326;28;20070;-83
2023/05/12 00:54:34;;;;;;;45.95;22.27;;;11.50;99.90;;;;;;5093607;28;20071;-82
2023/05/12 00:56:59;;;;;;;47.33;22.58;;;11.40;99.90;;;;;;5110302;27;20103;-83
2023/05/12 00:59:25;;;;;;;53.47;21.80;;;11.40;99.90;;;;;;5096223;28;20039;-82
2023/05/12 01:01:51;;;;;;;42.80;22.20;;;11.50;99.90;;;;;;5093113;28;20080;-82
2023/05/12 01:04:17;;;;;;;51.40;22.88;;;11.50;99.90;;;;;;5093243;28;20489;-83
2023/05/12 01:06:53;;;;;;;38.60;21.00;;;11.60;99.90;;;;;;5092155;28;20551;-82
2023/05/12 01:09:20;;;;;;;42.75;22.38;;;11.50;99.90;;;;;;5093226;28;20130;-82
2023/05/12 01:11:45;;;;;;;45.28;22.90;;;11.60;99.90;;;;;;5123406;27;20042;-82
2023/05/12 01:14:11;;;;;;;44.38;21.15;;;11.50;99.90;;;;;;5119249;28;20067;-82
2023/05/12 01:16:44;;;;;;;42.40;20.20;;;11.60;99.90;;;;;;5117380;28;20052;-82
2023/05/12 01:19:17;;;;;;;;;;;11.60;99.90;;;;;;5119671;28;20050;-82
2023/05/12 01:21:43;;;;;;;37.35;19.52;;;11.60;99.90;;;;;;5126534;28;20545;-82
2023/05/12 01:24:11;;;;;;;40.13;19.70;;;11.60;99.90;;;;;;5126740;28;20094;-82
2023/05/12 01:26:37;;;;;;;40.83;19.80;;;11.60;99.90;;;;;;5126226;28;20131;-83
2023/05/12 01:29:03;;;;;;;41.88;20.65;;;11.60;99.90;;;;;;5106727;28;20134;-83
2023/05/12 01:31:30;;;;;;;41.92;19.70;;;11.70;99.90;;;;;;5104125;28;20641;-82
2023/05/12 01:33:56;;;;;;;43.38;19.55;;;11.60;99.90;;;;;;5126953;28;20047;-83
2023/05/12 01:36:22;;;;;;;41.00;21.58;;;11.60;99.90;;;;;;5124014;28;20039;-83
2023/05/12 01:38:47;;;;;;;40.72;20.98;;;11.70;99.90;;;;;;5110684;27;20046;-83
2023/05/12 01:41:13;;;;;;;45.30;21.65;;;11.70;99.90;;;;;;5112456;27;20154;-83
2023/05/12 01:43:39;;;;;;;39.63;20.58;;;11.70;99.90;;;;;;5109526;28;20044;-83
2023/05/12 01:46:04;;;;;;;42.60;21.75;;;11.70;99.90;;;;;;5105768;27;20422;-82
2023/05/12 01:48:30;;;;;;;47.55;23.80;;;11.70;99.90;;;;;;5098771;28;20043;-83
2023/05/12 01:50:59;;;;;;;40.05;21.30;;;11.80;99.90;;;;;;5108664;27;20090;-83
2023/05/12 01:53:25;;;;;;;48.22;23.75;;;11.70;99.90;;;;;;5101923;28;20118;-83
2023/05/12 01:55:51;;;;;;;52.97;24.63;;;11.80;99.90;;;;;;5105433;28;20193;-83
2023/05/12 01:58:19;;;;;;;58.17;24.27;;;11.80;99.90;;;;;;5102958;27;20044;-83
2023/05/12 02:00:44;;;;;;;55.97;25.17;;;11.80;99.90;;;;;;5107775;28;20130;-82
2023/05/12 02:03:10;;;;;;;50.03;24.00;;;11.80;99.90;;;;;;5102961;27;20047;-83
2023/05/12 02:05:36;;;;;;;53.03;25.30;;;11.80;99.90;;;;;;5112282;27;20068;-83
2023/05/12 02:08:03;;;;;;;55.70;26.08;;;11.80;99.90;;;;;;5101835;28;20491;-82
2023/05/12 02:10:29;;;;;;;55.95;25.25;;;11.90;99.90;;;;;;5108846;27;20069;-83
2023/05/12 02:12:54;;;;;;;52.40;25.00;;;11.90;99.90;;;;;;5112198;27;20050;-82
2023/05/12 02:15:20;;;;;;;56.25;25.98;;;11.80;99.90;;;;;;5111026;27;20051;-82
2023/05/12 02:17:46;;;;;;;57.88;25.75;;;11.80;99.90;;;;;;5124393;27;20044;-82
2023/05/12 02:20:11;;;;;;;57.50;25.85;;;11.80;99.90;;;;;;5124891;27;20465;-82
2023/05/12 02:22:37;;;;;;;55.97;25.27;;;11.80;99.90;;;;;;5101816;28;20411;-82
2023/05/12 02:25:03;;;;;;;60.70;24.95;;;11.80;99.90;;;;;;5108604;27;20047;-83
2023/05/12 02:27:31;;;;;;;49.88;24.00;;;11.90;99.90;;;;;;5124832;27;20044;-82
2023/05/12 02:29:56;;;;;;;55.67;24.75;;;11.90;99.90;;;;;;5105492;28;20035;-83
2023/05/12 02:32:22;;;;;;;60.92;24.50;;;11.80;99.90;;;;;;5114780;27;20061;-82
2023/05/12 02:34:49;;;;;;;52.28;25.23;;;11.90;99.90;;;;;;5122343;27;20043;-82
2023/05/12 02:37:14;;;;;;;65.10;25.92;;;11.90;99.90;;;;;;5114731;27;20108;-83
2023/05/12 02:39:40;;;;;;;56.75;24.70;;;11.90;99.90;;;;;;5126210;27;20043;-82
2023/05/12 02:42:06;;;;;;;57.20;24.17;;;11.90;99.90;;;;;;5117312;27;20062;-82
2023/05/12 02:44:32;;;;;;;50.55;22.65;;;11.80;99.90;;;;;;5122258;27;20054;-82
2023/05/12 02:46:57;;;;;;;62.75;24.85;;;11.90;99.90;;;;;;5108299;27;20391;-82
2023/05/12 02:49:23;;;;;;;58.33;24.25;;;11.80;99.90;;;;;;5103761;28;20078;-82
2023/05/12 02:51:49;;;;;;;54.55;24.67;;;11.90;99.90;;;;;;5091610;28;20079;-82
2023/05/12 02:54:15;;;;;;;52.58;24.27;;;11.90;99.90;;;;;;5105043;28;20093;-82
2023/05/12 02:56:40;;;;;;;55.80;24.15;;;11.90;99.90;;;;;;5101306;27;20054;-82
2023/05/12 02:59:06;;;;;;;48.28;22.98;;;11.90;99.90;;;;;;5111561;27;20032;-82
2023/05/12 03:01:32;;;;;;;50.58;23.27;;;11.80;99.90;;;;;;5106886;28;20065;-82
2023/05/12 03:03:57;;;;;;;53.40;23.08;;;11.80;99.90;;;;;;5125287;27;20490;-82
2023/05/12 03:06:23;;;;;;;57.13;24.05;;;11.80;99.90;;;;;;5099686;28;20118;-82
2023/05/12 03:08:49;;;;;;;58.00;23.10;;;11.70;99.90;;;;;;5108455;27;20043;-83
2023/05/12 03:11:14;;;;;;;51.95;22.77;;;11.70;99.90;;;;;;5124234;27;20051;-82
2023/05/12 03:13:40;;;;;;;51.17;22.20;;;11.70;99.90;;;;;;5104352;28;20058;-82
2023/05/12 03:16:06;;;;;;;54.80;23.33;;;11.60;99.90;;;;;;5097753;28;20130;-82
2023/05/12 03:18:32;;;;;;;56.85;23.85;;;11.60;99.90;;;;;;5114657;27;20493;-82
2023/05/12 03:20:57;;;;;;;52.25;23.83;;;11.60;99.90;;;;;;5097348;28;20092;-82
2023/05/12 03:23:23;;;;;;;53.35;23.63;;;11.60;99.90;;;;;;5104064;28;20035;-82
2023/05/12 03:25:49;;;;;;;49.60;22.25;;;11.60;99.90;;;;;;5114756;27;20525;-82
2023/05/12 03:28:14;;;;;;;64.07;24.25;;;11.60;99.90;;;;;;5121839;27;20039;-82
2023/05/12 03:30:40;;;;;;;53.03;23.92;;;11.50;99.90;;;;;;5113973;27;20043;-82
2023/05/12 03:33:06;;;;;;;62.15;24.52;;;11.50;99.90;;;;;;5121275;27;20406;-82
2023/05/12 03:35:31;;;;;;;72.00;26.08;;;11.50;99.90;;;;;;5096975;28;20100;-82
2023/05/12 03:37:57;;;;;;;60.35;25.27;;;11.60;99.90;;;;;;5120747;27;20035;-81
2023/05/12 03:40:23;;;;;;;62.65;25.00;;;11.50;99.90;;;;;;5100710;27;20039;-82
2023/05/12 03:42:48;;;;;;;66.35;25.00;;;11.50;99.90;;;;;;5108261;27;20050;-83
2023/05/12 03:45:14;;;;;;;54.80;24.38;;;11.50;99.90;;;;;;5112427;27;20047;-82
2023/05/12 03:47:40;;;;;;;54.75;24.70;;;11.50;99.90;;;;;;5123482;27;20043;-82
2023/05/12 03:50:06;;;;;;;58.53;24.30;;;11.60;99.90;;;;;;5107088;28;20039;-82
2023/05/12 03:52:32;;;;;;;64.95;26.02;;;11.50;99.90;;;;;;5105546;27;20039;-83
2023/05/12 03:54:58;;;;;;;70.30;27.15;;;11.50;99.90;;;;;;5101542;28;20051;-82
2023/05/12 03:57:24;;;;;;;66.28;25.63;;;11.60;99.90;;;;;;5092454;27;20071;-81
2023/05/12 03:59:49;;;;;;;53.65;25.35;;;11.60;99.90;;;;;;5124339;27;20142;-81
2023/05/12 04:02:15;;;;;;;67.40;25.85;;;11.60;99.90;;;;;;5102243;28;20422;-82
2023/05/12 04:04:41;;;;;;;66.55;26.65;;;11.60;99.90;;;;;;5096626;28;20043;-82
2023/05/12 04:07:06;;;;;;;58.92;26.42;;;11.60;99.90;;;;;;5105816;27;20039;-82
2023/05/12 04:09:32;;;;;;;60.42;25.58;;;11.70;99.90;;;;;;5106813;28;20036;-82
2023/05/12 04:11:58;;;;;;;63.95;25.88;;;11.60;99.90;;;;;;5106679;27;20521;-82
2023/05/12 04:14:23;;;;;;;62.05;26.63;;;11.60;99.90;;;;;;5097647;28;20395;-82
2023/05/12 04:16:49;;;;;;;59.03;25.33;;;11.60;99.90;;;;;;5072588;27;20051;-82
2023/05/12 04:19:15;;;;;;;59.53;27.20;;;11.60;99.90;;;;;;5110017;27;20047;-82
2023/05/12 04:21:41;;;;;;;62.60;27.45;;;11.70;99.90;;;;;;5108214;27;20061;-81
2023/05/12 04:24:06;;;;;;;62.22;27.90;;;11.70;99.90;;;;;;5106912;28;20182;-82
2023/05/12 04:26:32;;;;;;;58.00;25.80;;;11.70;99.90;;;;;;5114836;28;20031;-82
2023/05/12 04:28:58;;;;;;;54.13;25.50;;;11.70;99.90;;;;;;5105949;28;20589;-82
2023/05/12 04:31:24;;;;;;;60.78;25.42;;;11.80;99.90;;;;;;5104042;28;20035;-82
2023/05/12 04:33:50;;;;;;;62.67;26.65;;;11.80;99.90;;;;;;5125509;28;20853;-82
2023/05/12 04:36:16;;;;;;;62.50;27.10;;;11.80;99.90;;;;;;5108488;28;20506;-82
2023/05/12 04:38:42;;;;;;;64.50;27.52;;;11.90;99.90;;;;;;5109527;28;20154;-82
2023/05/12 04:41:08;;;;;;;69.65;29.15;;;11.90;99.90;;;;;;5126097;28;20071;-82
2023/05/12 04:43:34;;;;;;;61.17;25.98;;;12.00;99.90;;;;;;5098162;28;20471;-82
2023/05/12 04:46:00;;;;;;;58.05;25.90;;;11.90;99.90;;;;;;5125750;28;20054;-82
2023/05/12 04:48:26;;;;;;;58.15;26.15;;;12.00;99.90;;;;;;5105551;28;20110;-82
2023/05/12 04:50:52;;;;;;;62.55;26.17;;;12.00;99.90;;;;;;5104139;28;20047;-82
2023/05/12 04:53:18;;;;;;;58.45;26.75;;;12.00;99.90;;;;;;5106037;28;20047;-81
2023/05/12 04:55:44;;;;;;;62.45;27.90;;;12.10;99.90;;;;;;5103975;28;20137;-82
2023/05/12 04:58:12;;;;;;;59.40;28.00;;;12.10;99.90;;;;;;5114970;28;20046;-82
2023/05/12 05:00:38;;;;;;;59.13;27.42;;;12.10;99.90;;;;;;5108795;28;20405;-82
2023/05/12 05:03:04;;;;;;;65.60;27.25;;;12.20;99.90;;;;;;5108586;28;20498;-83
2023/05/12 05:05:30;;;;;;;57.60;26.88;;;12.10;99.90;;;;;;5125545;28;20051;-82
2023/05/12 05:07:56;;;;;;;53.83;25.80;;;12.20;99.90;;;;;;5123735;28;20031;-82
2023/05/12 05:10:22;;;;;;;62.92;27.38;;;12.20;99.90;;;;;;5108510;28;20414;-82
2023/05/12 05:12:48;;;;;;;62.60;28.48;;;12.20;99.90;;;;;;5106880;28;20044;-82
2023/05/12 05:15:14;;;;;;;53.63;25.83;;;12.20;99.90;;;;;;5108580;27;20460;-82
2023/05/12 05:17:41;;;;;;;55.92;26.67;;;12.20;99.90;;;;;;5108590;28;20047;-82
2023/05/12 05:20:07;;;;;;;63.08;26.50;;;12.20;99.90;;;;;;5126645;27;20439;-82
2023/05/12 05:22:33;;;;;;;49.80;25.38;;;12.20;99.90;;;;;;5130193;27;20074;-81
2023/05/12 05:24:59;;;;;;;54.70;27.08;;;12.20;99.90;;;;;;5129889;27;20579;-82
2023/05/12 05:27:25;;;;;;;57.45;28.05;;;12.20;99.90;;;;;;5119014;27;20074;-82
2023/05/12 05:29:51;;;;;;;65.10;28.15;;;12.20;99.90;;;;;;5109575;27;20041;-82
2023/05/12 05:32:17;;;;;;;66.40;28.38;;;12.30;99.90;;;;;;5108124;28;20071;-82
2023/05/12 05:34:42;;;;;;;60.88;27.13;;;12.30;99.90;;;;;;5126852;27;20092;-82
2023/05/12 05:37:08;;;;;;;66.43;28.85;;;12.30;99.90;;;;;;5108544;28;20136;-82
2023/05/12 05:39:34;;;;;;;64.97;29.38;;;12.30;99.90;;;;;;5097410;27;20050;-82
2023/05/12 05:41:59;;;;;;;68.18;27.65;;;12.30;99.90;;;;;;5093080;28;20054;-82
2023/05/12 05:44:25;;;;;;;58.28;28.48;;;12.30;99.90;;;;;;5111405;27;20057;-83
2023/05/12 05:46:51;;;;;;;56.35;27.23;;;12.40;99.90;;;;;;5109069;28;20478;-82
2023/05/12 05:49:17;;;;;;;50.70;27.38;;;12.40;99.90;;;;;;5125198;27;20376;-81
2023/05/12 05:51:43;;;;;;;64.95;31.30;;;12.40;99.90;;;;;;5108275;28;20368;-81
2023/05/12 05:54:08;;;;;;;59.60;27.83;;;12.50;99.90;;;;;;5091242;27;20555;-82
2023/05/12 05:56:34;;;;;;;65.20;29.70;;;12.50;99.90;;;;;;5125667;27;20105;-82
2023/05/12 05:59:03;;;;;;;60.92;27.63;;;12.50;99.90;;;;;;5106925;27;20035;-81
2023/05/12 06:01:29;;;;;;;59.35;29.27;;;12.60;99.90;;;;;;5108429;28;20101;-82
2023/05/12 06:03:55;;;;;;;61.88;28.83;;;12.60;99.90;;;;;;5108158;27;20049;-83
2023/05/12 06:06:20;;;;;;;56.33;28.88;;;12.70;99.90;;;;;;5128310;27;20050;-82
2023/05/12 06:08:46;;;;;;;57.63;30.02;;;12.70;99.90;;;;;;5129045;27;20142;-82
2023/05/12 06:11:12;;;;;;;55.70;30.02;;;12.70;99.90;;;;;;5112405;27;20039;-82
2023/05/12 06:13:37;;;;;;;57.72;29.70;;;12.80;99.90;;;;;;5099303;28;20567;-82
2023/05/12 06:16:04;;;;;;;64.53;28.63;;;12.80;99.90;;;;;;5128367;27;20108;-82
2023/05/12 06:18:32;;;;;;;51.47;29.50;;;12.90;99.90;;;;;;5127238;27;20044;-82
2023/05/12 06:20:58;;;;;;;68.63;31.95;;;12.90;99.90;;;;;;5107339;28;20063;-82
2023/05/12 06:23:24;;;;;;;60.88;30.42;;;13.10;99.90;;;;;;5107863;27;20163;-82
2023/05/12 06:25:50;;;;;;;64.05;30.83;;;13.10;99.90;;;;;;5104287;28;20096;-82
2023/05/12 06:28:16;;;;;;;63.53;31.63;;;13.20;99.90;;;;;;5104299;27;20052;-82
2023/05/12 06:30:41;;;;;;;57.20;29.63;;;13.30;99.90;;;;;;5126621;27;20463;-82
2023/05/12 06:33:07;;;;;;;55.42;30.35;;;13.40;99.90;;;;;;5107214;27;20039;-82
2023/05/12 06:35:33;;;;;;;60.78;32.70;;;13.50;99.90;;;;;;5109716;27;20039;-82
2023/05/12 06:37:59;;;;;;;57.42;30.80;;;13.50;99.90;;;;;;5110928;27;20518;-84
2023/05/12 06:40:25;;;;;;;60.75;31.95;;;13.60;99.90;;;;;;5100249;27;20043;-84
2023/05/12 06:42:51;;;;;;;56.50;31.92;;;13.80;99.90;;;;;;5114229;27;20035;-85
2023/05/12 06:45:18;;;;;;;56.85;33.17;;;13.80;99.90;;;;;;5114590;27;20071;-86
2023/05/12 06:47:43;;;;;;;54.92;33.33;;;13.90;99.90;;;;;;5106288;27;20035;-86
2023/05/12 06:50:09;;;;;;;55.03;33.25;;;14.00;99.90;;;;;;5110740;27;20490;-81
2023/05/12 06:52:36;;;;;;;57.65;34.00;;;14.10;99.90;;;;;;5113371;27;20065;-82
2023/05/12 06:55:02;;;;;;;63.83;36.13;;;14.10;99.90;;;;;;5116335;27;20115;-85
2023/05/12 06:57:28;;;;;;;57.78;34.53;;;14.20;99.90;;;;;;5106413;28;20035;-86
2023/05/12 06:59:53;;;;;;;56.05;34.30;;;14.20;99.90;;;;;;5101680;27;20386;-86
2023/05/12 07:02:19;;;;;;;55.80;34.65;;;14.30;99.90;;;;;;5106573;27;20063;-85
2023/05/12 07:04:45;;;;;;;59.40;36.35;;;14.40;99.90;;;;;;5121774;27;20466;-85
2023/05/12 07:07:10;;;;;;;58.63;36.13;;;14.40;99.90;;;;;;5099841;28;20518;-85
2023/05/12 07:09:37;;;;;;;63.20;37.38;;;14.60;99.90;;;;;;5103442;27;20042;-85
2023/05/12 07:12:04;;;;;;;64.40;38.90;;;14.60;99.90;;;;;;5110986;27;20051;-85
2023/05/12 07:14:29;;;;;;;63.88;39.22;;;14.70;99.90;;;;;;5090940;28;20059;-85
2023/05/12 07:16:56;;;;;;;63.08;38.95;;;14.80;99.90;;;;;;5094294;27;20035;-83
2023/05/12 07:19:21;;;;;;;65.03;39.58;;;14.90;99.90;;;;;;5114284;27;20047;-84
2023/05/12 07:21:47;;;;;;;60.22;38.55;;;15.00;99.90;;;;;;5104619;28;20046;-84
2023/05/12 07:24:13;;;;;;;58.60;40.20;;;15.10;99.90;;;;;;5107652;27;20039;-83
2023/05/12 07:26:38;;;;;;;57.72;39.40;;;15.20;99.90;;;;;;5120270;27;20115;-84
2023/05/12 07:29:05;;;;;;;57.95;37.70;;;15.30;99.90;;;;;;5090808;28;20051;-84
2023/05/12 07:31:32;;;;;;;57.28;38.92;;;15.50;99.90;;;;;;5089317;27;20046;-84
2023/05/12 07:33:59;;;;;;;55.03;38.25;;;15.60;99.90;;;;;;5099913;28;20075;-84
2023/05/12 07:36:25;;;;;;;56.97;38.42;;;15.60;99.90;;;;;;5099285;27;20495;-84
2023/05/12 07:38:51;;;;;;;54.95;38.55;;;15.80;99.90;;;;;;5122200;27;20079;-85
2023/05/12 07:41:16;;;;;;;56.42;37.33;;;15.90;99.90;;;;;;5123667;27;20031;-84
2023/05/12 07:43:42;;;;;;;58.38;36.97;;;16.00;99.90;;;;;;5130661;27;20482;-85
2023/05/12 07:46:08;;;;;;;53.88;37.90;;;16.10;99.90;;;;;;5123535;27;20172;-84
2023/05/12 07:48:38;;;;;;;55.28;37.83;;;16.20;99.90;;;;;;5127075;27;20066;-85
2023/05/12 07:51:04;;;;;;;49.83;36.33;;;16.30;99.90;;;;;;5126334;27;20151;-84
2023/05/12 07:53:30;;;;;;;50.38;34.67;;;16.30;99.90;;;;;;5110040;27;21017;-85
2023/05/12 07:55:56;;;;;;;48.00;35.40;;;16.40;99.90;;;;;;5106308;28;20069;-84
2023/05/12 07:58:21;;;;;;;47.25;35.92;;;16.40;99.90;;;;;;5100465;27;20118;-85
2023/05/12 08:00:47;;;;;;;46.25;35.25;;;16.50;99.90;;;;;;5106303;28;20471;-85
2023/05/12 08:03:15;;;;;;;46.55;33.83;;;16.50;99.90;;;;;;5089575;28;20047;-85
2023/05/12 08:05:41;;;;;;;50.15;33.97;;;16.50;99.90;;;;;;5106280;28;20504;-85
2023/05/12 08:08:11;;;;;;;49.17;34.83;;;16.60;99.90;;;;;;5126964;27;20047;-85
2023/05/12 08:10:36;;;;;;;46.70;34.13;;;16.60;99.90;;;;;;5109738;27;20043;-85
2023/05/12 08:13:02;;;;;;;41.97;32.58;;;16.60;99.90;;;;;;5100817;27;20104;-85
2023/05/12 08:15:28;;;;;;;43.80;31.73;;;16.60;99.90;;;;;;5124504;27;20051;-84
2023/05/12 08:17:53;;;;;;;45.25;31.85;;;16.70;99.90;;;;;;5106397;28;20048;-84
2023/05/12 08:20:19;;;;;;;37.40;30.77;;;16.70;99.90;;;;;;5106690;27;20115;-84
2023/05/12 08:22:46;;;;;;;44.22;31.02;;;16.70;99.90;;;;;;5118491;27;20053;-84
2023/05/12 08:25:12;;;;;;;45.65;30.38;;;16.80;99.90;;;;;;5126539;27;20092;-84
2023/05/12 08:27:38;;;;;;;39.40;30.30;;;16.80;99.90;;;;;;5105763;28;20051;-84
2023/05/12 08:30:04;;;;;;;37.28;28.40;;;16.90;99.90;;;;;;5107590;28;20039;-84
2023/05/12 08:32:30;;;;;;;35.78;27.50;;;17.00;99.90;;;;;;5099528;28;20047;-83
2023/05/12 08:34:55;;;;;;;40.08;28.83;;;17.10;99.90;;;;;;5105231;28;20384;-85
2023/05/12 08:37:21;;;;;;;34.72;28.00;;;17.30;99.90;;;;;;5116990;28;20081;-84
2023/05/12 08:39:47;;;;;;;37.80;28.20;;;17.40;99.90;;;;;;5109589;28;20036;-84
2023/05/12 08:42:33;;;;;;;35.70;27.45;;;17.50;99.90;;;;;;5099944;28;20129;-84
2023/05/12 08:44:59;;;;;;;29.88;24.15;;;17.60;99.90;;;;;;5096657;28;20140;-84
2023/05/12 08:47:27;;;;;;;29.35;24.45;;;17.70;99.90;;;;;;5098658;27;20047;-83
2023/05/12 08:50:00;;;;;;;29.38;24.48;;;17.70;99.90;;;;;;5113838;27;20108;-84
2023/05/12 08:52:30;;;;;;;35.00;24.92;;;17.80;99.90;;;;;;5129948;27;20043;-84
2023/05/12 08:54:57;;;;;;;27.88;23.95;;;17.90;99.90;;;;;;5129621;27;20076;-84
2023/05/12 08:57:23;;;;;;;30.65;24.45;;;18.00;99.90;;;;;;5112129;27;20047;-84
2023/05/12 08:59:51;;;;;;;31.63;25.52;;;18.00;99.90;;;;;;5113864;27;20118;-84
2023/05/12 09:02:19;;;;;;;28.13;22.65;;;18.20;99.90;;;;;;5128664;27;20035;-84
2023/05/12 09:04:45;;;;;;;28.77;23.13;;;18.20;99.90;;;;;;5110355;28;20482;-84
2023/05/12 09:07:11;;;;;;;30.42;22.75;;;18.40;99.90;;;;;;5092490;27;20560;-84
2023/05/12 09:09:39;;;;;;;30.85;22.25;;;18.40;99.90;;;;;;5094968;28;20088;-83
2023/05/12 09:12:11;;;;;;;30.45;23.67;;;18.60;99.90;;;;;;5109244;27;20039;-83
2023/05/12 09:14:39;;;;;;;27.35;23.20;;;18.70;99.90;;;;;;5126990;27;20062;-84
2023/05/12 09:17:06;;;;;;;33.05;24.20;;;18.70;99.90;;;;;;5107448;27;20092;-84
2023/05/12 09:19:33;;;;;;;34.55;24.08;;;18.80;99.90;;;;;;5111971;27;20410;-85
2023/05/12 09:22:00;;;;;;;35.00;22.85;;;18.80;99.90;;;;;;5125099;27;20103;-86
2023/05/12 09:24:37;;;;;;;29.00;23.27;;;18.80;99.90;;;;;;5100154;28;20066;-84
2023/05/12 09:27:04;;;;;;;32.88;25.52;;;18.90;99.90;;;;;;5112577;27;20324;-85
2023/05/12 09:29:32;;;;;;;29.95;22.88;;;18.90;99.90;;;;;;5108750;28;20527;-84
2023/05/12 09:32:01;;;;;;;24.95;19.92;;;19.00;99.90;;;;;;5125212;27;20099;-84
2023/05/12 09:34:31;;;;;;;29.60;22.10;;;19.10;99.90;;;;;;5100351;28;20040;-84
2023/05/12 09:36:58;;;;;;;26.25;20.65;;;19.20;99.90;;;;;;5106390;28;20092;-85
2023/05/12 09:39:24;;;;;;;26.77;22.65;;;19.20;99.90;;;;;;5094930;27;20530;-84
2023/05/12 09:41:52;;;;;;;27.02;22.77;;;19.30;99.90;;;;;;5117665;27;20086;-84
2023/05/12 09:44:17;;;;;;;28.75;22.58;;;19.40;99.90;;;;;;5126961;27;20581;-85
2023/05/12 09:46:44;;;;;;;28.15;22.08;;;19.50;99.90;;;;;;5108168;28;20036;-85
2023/05/12 09:49:10;;;;;;;25.58;22.00;;;19.50;99.90;;;;;;5107180;27;20043;-84
2023/05/12 09:51:37;;;;;;;28.05;22.50;;;19.60;99.90;;;;;;5107737;28;20562;-84
2023/05/12 09:54:09;;;;;;;23.50;18.73;;;19.70;99.90;;;;;;5107703;27;20054;-85
2023/05/12 09:56:36;;;;;;;25.15;19.50;;;19.80;99.90;;;;;;5108193;28;20044;-84
2023/05/12 09:59:04;;;;;;;22.92;19.67;;;19.80;99.90;;;;;;5107007;27;20506;-85
2023/05/12 10:01:30;;;;;;;23.65;18.95;;;19.70;99.90;;;;;;5107946;28;20096;-85
2023/05/12 10:03:58;;;;;;;25.20;18.42;;;19.70;99.90;;;;;;5108186;27;20047;-85
2023/05/12 10:06:28;;;;;;;21.48;18.05;;;19.70;99.90;;;;;;5127941;27;20051;-81
2023/05/12 10:09:19;;;;;;;30.45;20.38;;;19.80;99.90;;;;;;5128918;27;20112;-83
2023/05/12 10:11:46;;;;;;;28.35;18.63;;;20.00;99.90;;;;;;5128546;27;20039;-83
2023/05/12 10:14:13;;;;;;;27.80;19.05;;;20.10;99.90;;;;;;5107902;28;20107;-81
2023/05/12 10:16:40;;;;;;;25.05;19.20;;;20.40;99.90;;;;;;5114839;27;20047;-80
2023/05/12 10:19:07;;;;;;;27.27;19.80;;;20.60;99.90;;;;;;5129265;27;20085;-81
2023/05/12 10:21:34;;;;;;;27.58;20.27;;;20.80;99.90;;;;;;5102274;27;20415;-81
2023/05/12 10:24:02;;;;;;;30.80;18.52;;;20.90;99.90;;;;;;5125738;27;20076;-81
2023/05/12 10:26:30;;;;;;;23.08;17.63;;;20.90;99.90;;;;;;5127797;27;20042;-81
2023/05/12 10:28:57;;;;;;;24.95;17.73;;;20.90;99.90;;;;;;5112688;27;20411;-81
2023/05/12 10:31:26;;;;;;;22.10;16.42;;;20.90;99.90;;;;;;5125606;27;20506;-81
2023/05/12 10:33:57;;;;;;;18.42;16.17;;;21.00;99.90;;;;;;5095886;28;20043;-80
2023/05/12 10:36:23;;;;;;;17.38;13.05;;;21.10;99.90;;;;;;5104053;27;20047;-80
2023/05/12 10:38:49;;;;;;;17.08;11.60;;;21.20;99.90;;;;;;5123509;27;20039;-81
2023/05/12 10:41:16;;;;;;;16.23;12.15;;;21.20;99.90;;;;;;5120916;27;20626;-81
2023/05/12 10:43:45;;;;;;;15.20;13.52;;;21.20;99.90;;;;;;5117371;27;20036;-81
2023/05/12 10:46:11;;;;;;;20.75;13.20;;;21.20;99.90;;;;;;5113367;27;20047;-81
2023/05/12 10:48:49;;;;;;;22.35;13.55;;;21.20;99.90;;;;;;5123802;27;20043;-81
2023/05/12 10:51:21;;;;;;;15.48;12.50;;;21.30;99.90;;;;;;5108751;27;20046;-82
2023/05/12 10:53:51;;;;;;;14.17;10.90;;;21.40;99.90;;;;;;5112603;27;20032;-81
2023/05/12 10:56:22;;;;;;;20.75;12.82;;;21.40;99.90;;;;;;5124823;27;20052;-81
2023/05/12 10:59:18;;;;;;;19.92;13.88;;;21.50;99.90;;;;;;5122657;27;20071;-82
2023/05/12 11:02:04;;;;;;;25.30;13.90;;;21.60;99.90;;;;;;5115561;27;20040;-81
2023/05/12 11:04:48;;;;;;;17.25;12.98;;;21.60;99.90;;;;;;5117203;27;20654;-83
2023/05/12 11:07:18;;;;;;;15.10;11.40;;;21.60;99.90;;;;;;5124617;27;20042;-82
2023/05/12 11:09:45;;;;;;;15.38;10.32;;;21.70;99.90;;;;;;5127413;27;20039;-81
2023/05/12 11:12:12;;;;;;;18.70;10.40;;;21.70;99.90;;;;;;5108968;27;20546;-83
2023/05/12 11:14:39;;;;;;;12.35;9.50;;;21.70;99.90;;;;;;5109776;27;20055;-87
2023/05/12 11:17:06;;;;;;;16.50;9.77;;;21.60;99.90;;;;;;5095049;27;20046;-83
2023/05/12 11:19:32;;;;;;;15.57;9.95;;;21.50;99.90;;;;;;5098086;28;20493;-83
2023/05/12 11:22:10;;;;;;;16.63;9.27;;;21.40;99.90;;;;;;5112059;27;20039;-83
2023/05/12 11:24:37;;;;;;;13.07;10.13;;;21.30;99.90;;;;;;5093668;27;20047;-83
2023/05/12 11:27:03;;;;;;;12.50;9.35;;;21.30;99.90;;;;;;5096860;27;20095;-83
2023/05/12 11:29:29;;;;;;;17.08;8.60;;;21.40;99.90;;;;;;5123803;27;20039;-83
2023/05/12 11:31:55;;;;;;;10.65;7.72;;;21.40;99.90;;;;;;5110832;27;20055;-82
2023/05/12 11:34:22;;;;;;;14.55;8.93;;;21.40;99.90;;;;;;5116702;27;20386;-83
2023/05/12 11:36:50;;;;;;;10.23;7.78;;;21.40;99.90;;;;;;5090498;27;20043;-83
2023/05/12 11:39:19;;;;;;;13.00;6.97;;;21.40;99.90;;;;;;5101537;27;20079;-82
2023/05/12 11:41:46;;;;;;;11.45;6.13;;;21.50;99.90;;;;;;5090664;28;20118;-82
2023/05/12 11:44:15;;;;;;;11.90;6.40;;;21.70;99.90;;;;;;5086166;27;20092;-82
2023/05/12 11:46:41;;;;;;;11.90;6.30;;;21.90;99.90;;;;;;5092690;27;20149;-82
2023/05/12 11:49:11;;;;;;;12.30;6.40;;;22.10;99.90;;;;;;5118626;27;20039;-83
2023/05/12 11:51:41;;;;;;;14.18;6.53;;;22.20;99.90;;;;;;5089384;28;20040;-83
2023/05/12 11:54:07;;;;;;;13.77;6.60;;;22.40;99.90;;;;;;5093188;27;20399;-82
2023/05/12 11:56:33;;;;;;;10.35;5.05;;;22.50;99.90;;;;;;5109643;27;20043;-83
2023/05/12 11:58:59;;;;;;;13.25;6.28;;;22.50;99.90;;;;;;5127038;27;20047;-83
2023/05/12 12:01:25;;;;;;;9.93;5.82;;;22.60;99.90;;;;;;5126026;27;20505;-82
2023/05/12 12:03:52;;;;;;;7.95;5.00;;;22.70;99.90;;;;;;5109418;27;20078;-82
2023/05/12 12:06:21;;;;;;;6.35;4.88;;;22.80;99.90;;;;;;5123231;27;20092;-85
2023/05/12 12:08:50;;;;;;;8.82;3.60;;;22.80;99.90;;;;;;5104802;28;20052;-88
2023/05/12 12:11:18;;;;;;;5.78;3.42;;;22.70;99.90;;;;;;5100186;27;20077;-81
2023/05/12 12:13:55;;;;;;;5.78;3.38;;;22.50;99.90;;;;;;5107683;27;20046;-81
2023/05/12 12:16:25;;;;;;;10.27;4.03;;;22.50;99.90;;;;;;5125946;27;20051;-81
2023/05/12 12:18:51;;;;;;;7.10;4.38;;;22.60;99.90;;;;;;5127355;27;20542;-81
2023/05/12 12:21:17;;;;;;;8.68;4.35;;;22.60;99.90;;;;;;5126588;27;20074;-81
2023/05/12 12:23:43;;;;;;;9.00;4.25;;;22.60;99.90;;;;;;5109243;27;20043;-81
2023/05/12 12:26:08;;;;;;;6.80;3.72;;;22.70;99.90;;;;;;5122342;27;20043;-80